Terminal Aerodrome Forecast
Issued by NWS

Home | Current Version | Previous Version | Text Only | Print | Product List | Glossary On
Versions: 1 2 3 4 5 6 7 8 9 10 11 12 13 14 15 16 17 18 19 20 21 22 23 24 25 26 27 28 29 30 31 32
000
FTUS41 KOKX 181912 AAA
TAFHPN
TAF AMD
KHPN 181912Z 1819/1918 17008KT P6SM VCSH FEW005 BKN008 BKN035
      TEMPO 1821/1901 22010G30KT 2SM TSRA OVC025CB
     FM190600 VRB04KT 4SM BR OVC020
     FM190900 32004KT 4SM BR SCT020 BKN100
      AMD NOT SKED=

USA.gov is the U.S. government's official web portal to all federal, state and local government web resources and services.